Time;durP1;ratioP1;P1;durP2;ratioP2;P2;SDS_P1;SDS_P2;PMS_P1;PMS_P2;Temp;Humidity;BMP_temperature;BMP_pressure;BME280_temperature;BME280_humidity;BME280_pressure;Samples;Min_cycle;Max_cycle;Signal;HPM_P1;HPM_P2
2023/07/17 00:01:43;;;;;;;4.05;3.72;;;;;;;24.77;71.59;95687.13;4989876;28;20203;-87
2023/07/17 00:04:09;;;;;;;4.47;3.60;;;;;;;24.85;71.15;95692.91;4990672;28;20661;-86
2023/07/17 00:06:36;;;;;;;3.78;3.47;;;;;;;24.79;71.42;95698.19;4991267;28;20202;-86
2023/07/17 00:09:02;;;;;;;3.38;3.10;;;;;;;24.84;70.88;95686.84;4991228;28;20242;-86
2023/07/17 00:11:30;;;;;;;3.60;3.30;;;;;;;24.82;71.32;95688.97;4991350;28;20553;-86
2023/07/17 00:13:56;;;;;;;3.67;3.30;;;;;;;24.80;71.40;95691.06;4990981;28;20800;-87
2023/07/17 00:16:23;;;;;;;3.58;3.10;;;;;;;24.73;71.13;95704.50;4991597;28;20199;-87
2023/07/17 00:18:49;;;;;;;3.63;3.33;;;;;;;24.78;71.24;95708.97;4989874;28;20254;-86
2023/07/17 00:21:16;;;;;;;3.40;3.10;;;;;;;24.77;71.38;95712.66;4989594;28;20200;-86
2023/07/17 00:23:42;;;;;;;3.70;3.40;;;;;;;24.77;72.12;95723.19;4991058;28;20208;-86
2023/07/17 00:26:09;;;;;;;4.28;3.38;;;;;;;24.79;71.82;95721.88;4991085;28;20199;-86
2023/07/17 00:28:36;;;;;;;4.43;3.22;;;;;;;24.72;72.56;95731.88;4990920;28;20203;-86
2023/07/17 00:31:03;;;;;;;3.90;3.40;;;;;;;24.67;72.54;95731.06;4980347;28;20290;-87
2023/07/17 00:33:30;;;;;;;4.28;3.35;;;;;;;24.61;72.39;95719.75;4989400;28;20206;-86
2023/07/17 00:35:56;;;;;;;3.65;3.35;;;;;;;24.64;71.93;95721.06;4990702;28;20243;-86
2023/07/17 00:38:23;;;;;;;4.25;3.53;;;;;;;24.67;71.73;95710.78;4990836;28;20205;-86
2023/07/17 00:40:49;;;;;;;3.80;3.50;;;;;;;24.58;72.66;95730.81;4991204;28;20215;-86
2023/07/17 00:43:15;;;;;;;4.45;3.42;;;;;;;24.63;72.37;95728.16;4990421;28;20223;-87
2023/07/17 00:45:46;;;;;;;3.70;3.40;;;;;;;24.66;72.36;95727.66;4990801;28;20207;-86
2023/07/17 00:48:12;;;;;;;4.88;3.65;;;;;;;24.68;71.97;95712.38;4990770;28;20199;-86
2023/07/17 00:50:39;;;;;;;4.05;3.60;;;;;;;24.62;72.28;95712.66;4988920;28;20231;-87
2023/07/17 00:53:09;;;;;;;3.60;3.30;;;;;;;24.41;73.50;95738.16;4994185;28;20202;-87
2023/07/17 00:55:37;;;;;;;3.83;3.53;;;;;;;24.24;74.50;95754.16;4991357;28;20227;-86
2023/07/17 00:58:04;;;;;;;3.95;3.65;;;;;;;24.25;74.30;95744.41;4990891;28;20230;-86
2023/07/17 01:00:31;;;;;;;4.03;3.72;;;;;;;24.24;74.46;95753.38;4988960;28;20219;-86
2023/07/17 01:03:00;;;;;;;3.70;3.22;;;;;;;24.38;73.41;95739.47;4990446;28;20282;-86
2023/07/17 01:05:26;;;;;;;3.90;3.60;;;;;;;24.46;73.24;95730.25;4990676;28;20223;-86
2023/07/17 01:07:56;;;;;;;3.50;3.20;;;;;;;24.53;72.80;95708.94;4989008;28;20204;-86
2023/07/17 01:10:22;;;;;;;3.80;3.35;;;;;;;24.58;72.24;95706.31;4989497;28;20330;-86
2023/07/17 01:12:49;;;;;;;4.20;3.70;;;;;;;24.52;72.43;95704.72;4989916;28;20222;-86
2023/07/17 01:15:15;;;;;;;3.75;3.45;;;;;;;24.48;72.28;95706.28;4990390;28;20269;-86
2023/07/17 01:17:42;;;;;;;3.50;3.22;;;;;;;24.57;72.08;95700.28;4989916;28;20214;-87
2023/07/17 01:20:12;;;;;;;3.55;3.28;;;;;;;24.69;71.90;95698.16;4989685;28;20211;-86
2023/07/17 01:22:50;;;;;;;4.05;3.67;;;;;;;24.78;71.37;95680.00;4987622;28;20282;-87
2023/07/17 01:25:17;;;;;;;4.13;3.78;;;;;;;24.78;71.36;95675.53;4989817;28;20210;-86
2023/07/17 01:27:43;;;;;;;5.47;3.35;;;;;;;24.81;71.10;95678.69;4995621;28;20245;-86
2023/07/17 01:30:11;;;;;;;4.50;3.90;;;;;;;24.63;71.72;95678.13;4989196;28;20226;-86
2023/07/17 01:32:37;;;;;;;5.95;3.50;;;;;;;24.63;72.26;95695.81;4988446;28;20200;-86
2023/07/17 01:35:04;;;;;;;3.65;3.35;;;;;;;24.69;72.47;95697.38;4989109;28;20200;-87
2023/07/17 01:37:30;;;;;;;3.40;3.20;;;;;;;24.68;72.20;95701.84;4990042;28;20222;-86
2023/07/17 01:39:58;;;;;;;3.90;3.58;;;;;;;24.69;72.89;95700.78;4987676;28;20219;-86
2023/07/17 01:42:27;;;;;;;3.67;3.20;;;;;;;24.74;72.73;95694.75;4989506;28;20200;-86
2023/07/17 01:44:53;;;;;;;4.00;3.70;;;;;;;24.76;73.01;95706.59;4989715;28;20733;-86
2023/07/17 01:47:20;;;;;;;3.72;3.40;;;;;;;24.84;72.63;95694.75;4989658;28;20209;-86
2023/07/17 01:49:46;;;;;;;3.47;3.17;;;;;;;24.86;73.16;95700.53;4989539;28;20227;-86
2023/07/17 01:52:13;;;;;;;3.63;3.33;;;;;;;24.91;73.12;95703.19;4989811;28;20207;-86
2023/07/17 01:54:39;;;;;;;3.65;3.30;;;;;;;24.93;73.39;95716.88;4988149;28;20210;-86
2023/07/17 01:57:07;;;;;;;3.67;3.38;;;;;;;24.87;73.51;95712.66;4989528;28;20207;-86
2023/07/17 01:59:34;;;;;;;3.50;3.20;;;;;;;24.87;73.48;95723.19;4989749;28;20215;-87
2023/07/17 02:02:00;;;;;;;4.07;3.10;;;;;;;24.82;73.58;95738.22;4989383;28;20203;-87
2023/07/17 02:04:27;;;;;;;3.92;3.60;;;;;;;24.81;73.96;95736.66;4995843;28;20222;-85
2023/07/17 02:06:53;;;;;;;3.45;3.15;;;;;;;24.83;73.51;95732.66;4994373;28;20230;-86
2023/07/17 02:09:20;;;;;;;3.75;3.30;;;;;;;24.79;73.34;95729.00;4989168;28;20431;-87
2023/07/17 02:11:46;;;;;;;5.13;3.42;;;;;;;24.83;73.26;95737.16;4987974;28;20261;-87
2023/07/17 02:14:14;;;;;;;3.70;3.30;;;;;;;24.75;73.28;95735.84;4989669;28;20635;-86
2023/07/17 02:16:40;;;;;;;3.75;3.40;;;;;;;24.70;73.12;95733.19;4989557;28;20699;-87
2023/07/17 02:19:07;;;;;;;3.42;3.13;;;;;;;24.58;73.02;95725.56;4989514;28;20223;-86
2023/07/17 02:21:34;;;;;;;3.53;3.22;;;;;;;24.60;72.79;95723.44;4988740;28;20238;-86
2023/07/17 02:24:00;;;;;;;3.58;3.28;;;;;;;24.60;72.68;95722.66;4989079;28;20253;-86
2023/07/17 02:26:27;;;;;;;3.50;3.20;;;;;;;24.51;73.21;95729.47;4988351;28;20231;-86
2023/07/17 02:28:53;;;;;;;3.00;2.80;;;;;;;24.45;73.93;95741.81;4986507;28;20262;-86
2023/07/17 02:31:21;;;;;;;3.50;3.25;;;;;;;24.40;73.86;95758.41;4989067;28;20228;-86
2023/07/17 02:33:48;;;;;;;3.30;3.00;;;;;;;24.32;73.88;95764.16;4989360;28;20635;-86
2023/07/17 02:36:14;;;;;;;3.50;3.20;;;;;;;24.25;74.38;95778.59;4989358;28;20603;-86
2023/07/17 02:38:40;;;;;;;3.50;3.20;;;;;;;24.13;74.49;95780.63;4989151;28;20228;-87
2023/07/17 02:41:07;;;;;;;3.80;3.47;;;;;;;24.16;74.23;95765.13;4989346;28;20215;-87
2023/07/17 02:43:33;;;;;;;3.95;3.30;;;;;;;24.14;76.14;95803.28;4987192;28;20214;-86
2023/07/17 02:46:00;;;;;;;7.15;3.35;;;;;;;24.10;79.00;95845.09;4991523;28;20220;-87
2023/07/17 02:48:27;;;;;;;5.85;4.38;;;;;;;23.85;83.39;95903.63;4992575;28;20204;-86
2023/07/17 02:50:54;;;;;;;5.85;3.95;;;;;;;23.86;83.78;95918.31;4992029;28;20592;-87
2023/07/17 02:53:21;;;;;;;4.65;3.75;;;;;;;23.95;83.75;95916.03;4991858;28;20821;-87
2023/07/17 02:55:47;;;;;;;4.90;3.33;;;;;;;23.93;83.92;95924.16;4992276;28;20199;-86
2023/07/17 02:58:17;;;;;;;5.30;3.58;;;;;;;23.79;85.03;95923.03;4992305;28;20203;-86
2023/07/17 03:00:43;;;;;;;3.78;3.17;;;;;;;23.71;86.44;95941.88;4990785;28;20254;-86
2023/07/17 03:03:10;;;;;;;4.10;3.70;;;;;;;23.74;87.13;95965.84;4991788;28;20199;-86
2023/07/17 03:05:38;;;;;;;3.70;3.33;;;;;;;23.82;87.54;95974.31;5005130;28;20203;-87
2023/07/17 03:08:04;;;;;;;4.03;3.50;;;;;;;23.71;89.34;95994.47;4991865;28;20207;-87
2023/07/17 03:10:31;;;;;;;10.65;9.63;;;;;;;23.54;89.10;95993.78;4992204;28;20228;-86
2023/07/17 03:12:57;;;;;;;12.30;11.20;;;;;;;23.58;88.76;96013.28;4992312;28;20244;-87
2023/07/17 03:15:24;;;;;;;8.30;7.50;;;;;;;23.59;88.79;96015.66;4990549;28;20580;-87
2023/07/17 03:17:51;;;;;;;6.10;4.50;;;;;;;23.63;87.93;96023.84;4991685;28;20215;-86
2023/07/17 03:20:18;;;;;;;4.13;3.70;;;;;;;23.59;87.66;96026.19;4991597;28;20270;-87
2023/07/17 03:22:48;;;;;;;4.97;4.32;;;;;;;23.55;90.74;96063.72;4990477;28;20207;-87
2023/07/17 03:25:14;;;;;;;6.72;4.88;;;;;;;23.39;92.59;96078.50;4991611;28;20258;-86
2023/07/17 03:27:40;;;;;;;8.30;4.90;;;;;;;23.42;94.21;96080.63;4992037;28;20214;-88
2023/07/17 03:30:08;;;;;;;6.65;4.93;;;;;;;23.37;94.78;96078.72;4990763;28;20219;-87
2023/07/17 03:32:40;;;;;;;7.45;5.05;;;;;;;23.33;98.40;96114.41;4989465;28;20614;-86
2023/07/17 03:35:07;;;;;;;5.32;4.50;;;;;;;23.38;97.24;96108.44;4991707;28;20210;-87
2023/07/17 03:37:33;;;;;;;6.80;4.90;;;;;;;23.43;98.82;96129.53;4991226;28;20210;-87
2023/07/17 03:40:01;;;;;;;9.27;5.68;;;;;;;23.45;100.00;96164.25;4991139;28;20731;-87
2023/07/17 03:42:28;;;;;;;5.90;5.20;;;;;;;23.45;100.00;96174.78;4991013;28;20294;-86
2023/07/17 03:44:54;;;;;;;9.50;6.85;;;;;;;23.35;100.00;96133.38;4991752;28;20208;-85
2023/07/17 03:47:20;;;;;;;7.65;6.10;;;;;;;23.32;100.00;96156.72;4995749;28;20680;-87
2023/07/17 03:49:47;;;;;;;6.78;5.70;;;;;;;23.33;100.00;96135.44;4991154;28;20215;-86
2023/07/17 03:52:13;;;;;;;8.60;5.85;;;;;;;23.41;100.00;96173.66;4991340;28;20691;-86
2023/07/17 03:54:40;;;;;;;6.55;4.72;;;;;;;23.42;100.00;96162.13;4992458;28;20207;-86
2023/07/17 03:57:07;;;;;;;5.50;4.93;;;;;;;23.38;98.45;96127.63;4991846;28;20211;-87
2023/07/17 03:59:48;;;;;;;7.32;6.63;;;;;;;23.27;99.69;96131.19;4992149;28;20227;-86
2023/07/17 04:02:14;;;;;;;5.00;4.60;;;;;;;23.17;99.63;96133.66;4977288;28;20614;-86
2023/07/17 04:04:41;;;;;;;5.68;4.18;;;;;;;23.22;99.57;96133.72;4993611;28;20257;-86
2023/07/17 04:07:07;;;;;;;6.40;5.85;;;;;;;23.31;97.34;96102.56;4992654;28;20215;-87
2023/07/17 04:09:34;;;;;;;5.50;5.00;;;;;;;23.25;96.85;96090.41;4992314;28;20235;-86
2023/07/17 04:12:03;;;;;;;4.65;4.25;;;;;;;23.27;95.80;96077.81;4991506;28;20215;-87
2023/07/17 04:14:31;;;;;;;4.65;4.25;;;;;;;23.28;96.31;96106.50;4991437;28;20238;-87
2023/07/17 04:16:58;;;;;;;5.43;4.40;;;;;;;23.25;97.56;96130.63;4981998;28;20227;-87
2023/07/17 04:19:24;;;;;;;4.18;3.83;;;;;;;23.17;95.92;96122.34;4990519;28;20223;-88
2023/07/17 04:21:53;;;;;;;4.50;4.10;;;;;;;23.14;96.25;96135.97;4990637;28;20196;-87
2023/07/17 04:24:19;;;;;;;4.78;4.03;;;;;;;23.07;94.72;96115.94;4991680;28;20204;-86
2023/07/17 04:26:46;;;;;;;4.70;4.30;;;;;;;23.01;96.77;96137.91;4991073;28;20791;-87
2023/07/17 04:29:12;;;;;;;4.85;3.80;;;;;;;22.96;97.31;96156.22;4989951;28;20301;-88
2023/07/17 04:31:40;;;;;;;4.30;3.90;;;;;;;23.05;95.79;96140.84;4991032;28;20223;-87
2023/07/17 04:34:06;;;;;;;4.65;3.97;;;;;;;23.03;95.99;96135.03;4990577;28;20207;-87
2023/07/17 04:36:33;;;;;;;4.10;3.70;;;;;;;23.04;96.00;96147.94;4991258;28;20211;-88
2023/07/17 04:38:59;;;;;;;4.25;3.95;;;;;;;23.07;94.41;96128.28;4993158;28;20228;-87
2023/07/17 04:41:26;;;;;;;11.40;10.30;;;;;;;23.05;93.62;96119.84;4991751;28;20211;-86
2023/07/17 04:43:52;;;;;;;6.75;5.47;;;;;;;23.00;93.77;96106.63;4990969;28;20195;-87
2023/07/17 04:46:18;;;;;;;6.45;5.30;;;;;;;22.92;95.21;96115.69;4991821;28;20195;-87
2023/07/17 04:48:46;;;;;;;4.50;3.95;;;;;;;22.98;94.74;96109.50;4991932;28;20730;-87
2023/07/17 04:51:13;;;;;;;4.38;3.92;;;;;;;23.07;94.76;96102.00;4992027;28;20227;-87
2023/07/17 04:53:39;;;;;;;4.65;4.10;;;;;;;23.12;96.21;96122.28;4991154;28;20208;-88
2023/07/17 04:56:06;;;;;;;5.72;4.40;;;;;;;23.07;96.88;96126.44;4987776;28;20266;-88
2023/07/17 04:58:33;;;;;;;4.78;4.38;;;;;;;23.06;96.74;96143.25;4981313;28;20306;-88
2023/07/17 05:01:00;;;;;;;6.55;4.38;;;;;;;23.11;96.32;96152.19;4985677;28;20219;-87
2023/07/17 05:03:27;;;;;;;6.32;4.25;;;;;;;23.08;96.42;96156.94;4990996;28;20211;-86
2023/07/17 05:05:55;;;;;;;5.00;4.43;;;;;;;23.04;96.42;96176.03;5009528;28;20222;-86
2023/07/17 05:08:22;;;;;;;4.85;4.45;;;;;;;22.89;96.73;96181.06;5002973;28;20251;-87
2023/07/17 05:10:54;;;;;;;5.20;4.32;;;;;;;22.85;97.78;96198.31;4990133;28;20227;-86
2023/07/17 05:13:20;;;;;;;5.50;4.55;;;;;;;22.92;96.95;96189.22;4991578;28;20239;-86
2023/07/17 05:15:46;;;;;;;6.65;4.47;;;;;;;22.80;97.00;96193.78;4992103;28;20235;-87
2023/07/17 05:18:13;;;;;;;6.18;4.95;;;;;;;22.82;96.63;96183.84;4991527;28;20214;-86
2023/07/17 05:20:39;;;;;;;5.30;4.57;;;;;;;22.73;97.11;96190.47;4991282;28;20223;-86
2023/07/17 05:23:07;;;;;;;5.63;5.13;;;;;;;22.74;96.95;96197.31;4990036;28;20203;-87
2023/07/17 05:25:34;;;;;;;5.38;4.72;;;;;;;22.82;97.82;96217.97;4989103;28;20294;-86
2023/07/17 05:28:00;;;;;;;5.80;4.95;;;;;;;22.80;98.43;96225.28;4991568;28;20671;-87
2023/07/17 05:30:26;;;;;;;5.82;5.22;;;;;;;22.85;97.77;96222.75;4990215;28;20611;-87
2023/07/17 05:32:53;;;;;;;5.95;5.07;;;;;;;22.84;98.79;96239.53;4989631;28;20207;-86
2023/07/17 05:35:19;;;;;;;6.57;5.03;;;;;;;22.92;98.24;96230.47;4990390;28;20215;-86
2023/07/17 05:37:46;;;;;;;5.65;5.15;;;;;;;22.87;97.07;96220.69;4990502;28;20207;-87
2023/07/17 05:40:14;;;;;;;6.72;5.38;;;;;;;22.85;96.97;96221.97;4987943;28;20234;-87
2023/07/17 05:42:40;;;;;;;6.28;4.97;;;;;;;22.87;97.77;96225.94;4989301;28;20211;-86
2023/07/17 05:45:08;;;;;;;12.65;11.35;;;;;;;22.89;99.11;96244.09;4989591;28;20208;-87
2023/07/17 05:47:35;;;;;;;17.38;15.77;;;;;;;22.83;99.71;96256.34;4989192;28;20258;-87
2023/07/17 05:50:01;;;;;;;8.70;7.88;;;;;;;22.91;99.20;96242.00;4988289;28;20223;-87
2023/07/17 05:52:28;;;;;;;6.47;5.05;;;;;;;22.95;95.82;96215.03;4988357;28;20732;-87
2023/07/17 05:54:54;;;;;;;5.93;5.00;;;;;;;22.85;94.03;96191.25;4988561;28;20215;-87
2023/07/17 05:57:22;;;;;;;9.15;5.70;;;;;;;22.82;93.61;96183.84;4986987;28;20214;-87
2023/07/17 05:59:49;;;;;;;5.22;4.50;;;;;;;22.81;91.39;96158.59;4988913;28;20230;-87
2023/07/17 06:02:15;;;;;;;5.97;3.90;;;;;;;22.82;91.08;96151.53;4988533;28;20707;-88
2023/07/17 06:04:42;;;;;;;4.57;3.70;;;;;;;22.71;88.57;96119.81;4996062;28;20229;-87
2023/07/17 06:07:09;;;;;;;3.83;3.53;;;;;;;22.64;87.25;96082.44;4988666;28;20211;-87
2023/07/17 06:09:37;;;;;;;5.80;3.90;;;;;;;22.59;86.43;96071.06;4988436;28;20230;-87
2023/07/17 06:12:03;;;;;;;5.20;3.80;;;;;;;22.62;86.23;96060.09;4988592;28;20227;-87
2023/07/17 06:14:31;;;;;;;6.00;5.22;;;;;;;22.42;88.83;96092.06;4987948;28;20207;-87
2023/07/17 06:16:58;;;;;;;5.15;3.85;;;;;;;22.33;89.29;96107.41;4989069;28;20226;-86
2023/07/17 06:19:24;;;;;;;4.03;3.53;;;;;;;22.36;85.46;96059.69;4988902;28;20649;-87
2023/07/17 06:21:50;;;;;;;7.05;4.18;;;;;;;22.48;84.94;96062.25;4991300;28;20696;-87
2023/07/17 06:24:20;;;;;;;4.95;3.90;;;;;;;22.58;85.29;96064.22;4992617;28;20211;-87
2023/07/17 06:26:47;;;;;;;5.43;3.45;;;;;;;22.68;85.56;96080.94;4992437;28;20578;-86
2023/07/17 06:29:13;;;;;;;4.03;3.50;;;;;;;22.81;85.51;96085.09;4991026;28;20216;-87
2023/07/17 06:31:44;;;;;;;6.38;3.22;;;;;;;22.72;87.02;96113.53;4992550;28;20231;-86
2023/07/17 06:34:11;;;;;;;6.63;3.65;;;;;;;22.70;83.44;96059.69;4991896;28;20195;-87
2023/07/17 06:36:37;;;;;;;3.42;3.13;;;;;;;22.72;82.75;96033.97;4992286;28;20204;-86
2023/07/17 06:39:11;;;;;;;5.90;3.65;;;;;;;22.57;85.26;96088.88;4992087;28;20585;-88
2023/07/17 06:41:37;;;;;;;4.10;3.40;;;;;;;22.59;84.31;96076.31;4992348;28;20270;-86
2023/07/17 06:44:04;;;;;;;5.68;3.60;;;;;;;22.61;82.08;96045.38;4992144;28;20211;-87
2023/07/17 06:46:30;;;;;;;6.22;4.97;;;;;;;22.48;82.57;96049.13;4990583;28;20295;-87
2023/07/17 06:48:58;;;;;;;7.88;6.53;;;;;;;22.56;83.00;96055.78;4991627;28;20219;-87
2023/07/17 06:51:25;;;;;;;6.80;4.85;;;;;;;22.59;82.11;96043.00;4992265;28;20227;-87
2023/07/17 06:53:52;;;;;;;6.88;5.22;;;;;;;22.67;81.42;96028.69;4992158;28;20236;-88
2023/07/17 06:56:22;;;;;;;10.23;6.63;;;;;;;22.62;81.19;96036.47;4990823;28;20199;-87
2023/07/17 06:58:48;;;;;;;6.22;3.78;;;;;;;22.64;80.58;96032.56;4991558;28;20243;-87
2023/07/17 07:09:24;;;;;;;4.80;3.75;;;;;;;22.73;77.69;95996.19;4837269;29;20220;-87
2023/07/17 07:15:15;;;;;;;4.30;3.80;;;;;;;22.72;78.84;96023.47;4976073;28;20713;-86
2023/07/17 07:17:42;;;;;;;4.90;3.78;;;;;;;22.79;78.56;96005.75;4990794;28;20290;-86
2023/07/17 07:20:10;;;;;;;5.22;3.67;;;;;;;22.89;76.97;95974.38;4991631;28;20234;-86
2023/07/17 07:22:36;;;;;;;6.30;3.50;;;;;;;23.05;76.35;95955.13;4990247;28;20212;-86
2023/07/17 07:25:02;;;;;;;3.90;3.30;;;;;;;23.23;76.38;95969.78;4991627;28;20204;-87
2023/07/17 07:27:35;;;;;;;4.20;3.38;;;;;;;23.34;75.08;95936.50;4992514;28;20214;-87
2023/07/17 07:30:03;;;;;;;5.57;3.33;;;;;;;23.41;72.98;95890.59;4991773;28;20226;-87
2023/07/17 07:32:30;;;;;;;4.38;3.28;;;;;;;23.38;71.30;95856.13;4989730;28;20314;-87
2023/07/17 07:34:57;;;;;;;4.95;3.63;;;;;;;23.46;70.73;95832.03;4989590;28;20203;-87
2023/07/17 07:37:23;;;;;;;5.65;3.55;;;;;;;23.56;70.93;95829.50;4989180;28;20204;-87
2023/07/17 07:39:49;;;;;;;7.68;3.72;;;;;;;23.46;71.04;95832.03;4988362;28;20215;-86
2023/07/17 07:42:18;;;;;;;7.20;3.20;;;;;;;23.52;71.09;95843.38;4988001;28;20211;-87
2023/07/17 07:44:46;;;;;;;6.15;3.40;;;;;;;23.73;70.05;95816.19;4987713;28;20561;-87
2023/07/17 07:47:12;;;;;;;5.22;3.58;;;;;;;23.87;69.37;95792.88;4988183;28;20255;-87
2023/07/17 07:49:39;;;;;;;44.28;40.00;;;;;;;24.05;69.04;95787.22;4988198;28;20251;-87
2023/07/17 07:52:06;;;;;;;6.18;5.30;;;;;;;23.99;68.94;95782.97;4989062;28;20606;-87
2023/07/17 07:54:37;;;;;;;4.78;3.75;;;;;;;24.18;69.82;95805.16;4989685;28;20203;-87
2023/07/17 07:57:07;;;;;;;5.65;3.83;;;;;;;24.41;69.84;95815.28;4990807;28;20967;-87
2023/07/17 07:59:34;;;;;;;5.07;3.70;;;;;;;24.49;67.92;95774.47;4990928;28;20604;-87
2023/07/17 08:02:02;;;;;;;4.05;3.67;;;;;;;24.57;67.93;95770.56;4990901;28;20203;-87
2023/07/17 08:04:28;;;;;;;3.60;3.13;;;;;;;24.49;65.11;95674.44;4997414;28;20206;-87
2023/07/17 08:06:55;;;;;;;4.78;4.07;;;;;;;24.57;66.56;95726.59;4993016;28;20269;-87
2023/07/17 08:09:22;;;;;;;9.27;3.60;;;;;;;24.76;64.91;95690.81;4989959;28;20223;-87
2023/07/17 08:11:50;;;;;;;5.30;3.50;;;;;;;24.68;64.98;95680.00;4989483;28;20226;-87
2023/07/17 08:14:17;;;;;;;4.13;3.55;;;;;;;24.75;66.12;95726.09;4990692;28;20199;-86
2023/07/17 08:16:48;;;;;;;4.68;3.58;;;;;;;24.72;67.95;95774.03;4990581;28;20270;-87
2023/07/17 08:19:16;;;;;;;5.60;4.60;;;;;;;24.77;69.27;95816.19;4991283;28;20227;-86
2023/07/17 08:21:48;;;;;;;6.40;4.00;;;;;;;24.89;69.70;95810.66;4988660;28;20203;-87
2023/07/17 08:24:18;;;;;;;4.65;3.22;;;;;;;25.21;69.08;95804.41;4987396;28;20210;-86
2023/07/17 08:26:44;;;;;;;5.75;3.45;;;;;;;25.37;66.42;95721.63;4990453;28;20207;-86
2023/07/17 08:29:11;;;;;;;4.03;3.08;;;;;;;25.23;64.48;95657.31;4990393;28;20746;-87
2023/07/17 08:31:37;;;;;;;6.05;3.20;;;;;;;25.02;63.59;95631.00;4990246;28;20229;-86
2023/07/17 08:34:04;;;;;;;4.97;3.30;;;;;;;25.07;63.52;95622.31;4989841;28;20701;-87
2023/07/17 08:36:33;;;;;;;4.60;3.35;;;;;;;25.01;62.67;95603.09;4990525;28;20246;-87
2023/07/17 08:38:59;;;;;;;6.60;4.50;;;;;;;25.11;63.37;95623.34;4988689;28;20228;-87
2023/07/17 08:41:26;;;;;;;3.95;3.65;;;;;;;25.41;64.21;95677.84;4989696;28;20692;-87
2023/07/17 08:43:53;;;;;;;5.20;3.47;;;;;;;25.42;65.01;95701.31;4989673;28;20208;-87
2023/07/17 08:46:20;;;;;;;3.70;3.10;;;;;;;25.25;62.33;95631.50;4990061;28;20200;-87
2023/07/17 08:48:47;;;;;;;3.65;2.83;;;;;;;25.35;61.67;95605.91;4989688;28;20208;-87
2023/07/17 08:51:14;;;;;;;5.72;3.15;;;;;;;25.65;60.27;95564.66;4989692;28;20203;-88
2023/07/17 08:53:53;;;;;;;5.32;3.25;;;;;;;25.58;60.75;95541.22;4988365;28;20644;-87
2023/07/17 08:56:20;;;;;;;5.03;3.50;;;;;;;25.54;61.60;95563.91;4989632;28;20210;-87
2023/07/17 08:58:47;;;;;;;5.00;3.20;;;;;;;25.71;60.66;95521.38;4989523;28;20211;-88
2023/07/17 09:01:14;;;;;;;4.57;2.97;;;;;;;26.01;60.08;95504.56;4989690;28;20210;-87
2023/07/17 09:03:40;;;;;;;5.07;3.10;;;;;;;26.34;57.99;95429.09;4989286;28;20195;-88
2023/07/17 09:06:09;;;;;;;3.50;3.20;;;;;;;26.57;57.13;95428.28;4970123;28;20745;-87
2023/07/17 09:08:35;;;;;;;3.60;3.20;;;;;;;26.74;57.13;95404.88;4969944;28;20235;-87
2023/07/17 09:11:04;;;;;;;4.90;3.40;;;;;;;26.91;54.50;95311.91;4984130;28;20200;-88
2023/07/17 09:13:38;;;;;;;4.05;2.88;;;;;;;27.06;54.48;95290.56;4989234;28;20220;-87
2023/07/17 09:16:16;;;;;;;7.47;3.80;;;;;;;27.08;54.89;95312.22;4989355;28;20234;-87
2023/07/17 09:18:43;;;;;;;3.72;3.28;;;;;;;27.13;53.50;95237.34;4989442;28;20235;-88
2023/07/17 09:21:12;;;;;;;5.28;3.88;;;;;;;27.29;53.83;95277.53;4988450;28;20207;-87
2023/07/17 09:23:39;;;;;;;5.15;3.38;;;;;;;27.45;55.21;95329.91;4988971;28;20203;-87
2023/07/17 09:26:07;;;;;;;3.58;3.28;;;;;;;27.45;53.66;95284.16;4986007;28;20207;-88
2023/07/17 09:28:46;;;;;;;2.90;2.70;;;;;;;27.60;51.70;95179.97;4987444;28;20289;-88
2023/07/17 09:31:13;;;;;;;3.10;2.80;;;;;;;27.75;51.55;95158.50;4988681;28;20199;-88
2023/07/17 09:33:41;;;;;;;5.20;3.03;;;;;;;27.95;50.12;95091.91;4988633;28;20227;-88
2023/07/17 09:36:12;;;;;;;4.20;3.40;;;;;;;27.96;49.69;95034.47;4988283;28;20601;-88
2023/07/17 09:38:39;;;;;;;3.40;3.10;;;;;;;28.06;47.62;94968.88;4984851;28;20203;-88
2023/07/17 09:41:20;;;;;;;4.95;3.15;;;;;;;28.09;46.34;94890.72;4987810;28;20215;-88
2023/07/17 09:43:54;;;;;;;7.65;3.45;;;;;;;28.21;47.73;94962.44;4986518;28;20225;-87
2023/07/17 09:46:20;;;;;;;4.05;2.83;;;;;;;28.38;48.02;94991.66;4988910;28;20207;-88
2023/07/17 09:48:47;;;;;;;3.10;2.80;;;;;;;28.52;46.68;94920.06;4988884;28;20207;-88
2023/07/17 09:51:14;;;;;;;4.05;3.20;;;;;;;28.70;47.89;94977.31;4987163;28;20195;-89
2023/07/17 09:53:49;;;;;;;3.55;2.80;;;;;;;28.66;48.13;94992.28;4985538;28;20223;-88
2023/07/17 09:56:45;;;;;;;3.25;2.83;;;;;;;28.76;46.06;94887.88;4985668;28;20214;-88
2023/07/17 09:59:14;;;;;;;4.57;4.05;;;;;;;28.87;47.46;94947.47;4984287;28;20221;-87
2023/07/17 10:01:44;;;;;;;4.43;3.97;;;;;;;28.97;45.75;94882.81;4986911;28;20207;-88
2023/07/17 10:04:14;;;;;;;3.92;2.95;;;;;;;28.99;45.13;94839.00;4988481;28;20199;-89
2023/07/17 10:06:44;;;;;;;3.63;2.92;;;;;;;29.04;44.87;94828.25;4987400;28;20938;-87
2023/07/17 10:09:14;;;;;;;3.63;2.97;;;;;;;29.13;45.96;94847.59;4985330;28;20219;-87
2023/07/17 10:11:45;;;;;;;3.33;2.90;;;;;;;29.28;44.65;94811.06;4986198;28;20203;-87
2023/07/17 10:14:12;;;;;;;4.13;2.85;;;;;;;29.34;45.55;94865.53;4984496;28;20623;-88
2023/07/17 10:16:39;;;;;;;6.82;3.03;;;;;;;29.51;44.73;94801.88;4986928;28;20254;-87
2023/07/17 10:19:08;;;;;;;5.30;3.13;;;;;;;29.51;44.60;94780.66;4988475;28;20245;-87
2023/07/17 10:21:35;;;;;;;3.10;2.80;;;;;;;29.48;44.72;94797.19;4988134;28;20211;-87
2023/07/17 10:24:11;;;;;;;3.88;2.97;;;;;;;29.42;43.88;94758.69;4988752;28;20231;-87
2023/07/17 10:26:38;;;;;;;4.15;3.20;;;;;;;29.26;45.28;94814.03;4988739;28;20210;-87
2023/07/17 10:29:06;;;;;;;5.55;3.20;;;;;;;29.44;44.31;94772.41;4987606;28;20231;-87
2023/07/17 10:31:33;;;;;;;4.28;2.95;;;;;;;29.49;43.98;94773.00;4987255;28;20280;-87
2023/07/17 10:34:02;;;;;;;3.08;2.78;;;;;;;29.61;43.71;94772.38;4987210;28;20270;-89
2023/07/17 10:39:36;;;;;;;6.80;3.00;;;;;;;29.55;44.42;94769.09;4977200;28;20231;-87
2023/07/17 10:42:08;;;;;;;3.53;2.90;;;;;;;29.55;43.91;94744.44;4984175;28;20227;-88
2023/07/17 10:44:50;;;;;;;3.22;2.75;;;;;;;29.13;43.73;94732.78;4986419;28;20242;-88
2023/07/17 10:47:26;;;;;;;3.28;2.97;;;;;;;29.41;44.26;94767.72;4987201;28;20205;-87
2023/07/17 10:49:57;;;;;;;3.92;2.78;;;;;;;29.71;43.81;94758.75;4988181;28;20227;-88
2023/07/17 10:52:38;;;;;;;5.88;2.85;;;;;;;29.82;42.85;94719.38;4986083;28;20310;-88
2023/07/17 10:55:08;;;;;;;3.40;3.10;;;;;;;29.68;43.90;94746.09;4985155;28;20211;-89
2023/07/17 10:57:53;;;;;;;4.20;2.88;;;;;;;29.83;43.12;94712.94;4986231;28;20207;-89
2023/07/17 11:00:22;;;;;;;3.25;2.95;;;;;;;29.76;44.58;94811.66;4955278;28;20227;-88
2023/07/17 11:02:56;;;;;;;4.78;3.72;;;;;;;29.65;44.06;94783.88;4982883;28;20208;-89
2023/07/17 11:05:36;;;;;;;14.27;13.05;;;;;;;29.30;44.31;94759.28;4984749;28;20233;-89
2023/07/17 11:08:07;;;;;;;8.50;7.70;;;;;;;28.95;44.53;94774.44;4992087;28;20475;-89
2023/07/17 11:10:49;;;;;;;7.03;6.32;;;;;;;29.01;44.87;94810.31;4991840;28;20704;-89
2023/07/17 11:13:15;;;;;;;4.70;4.18;;;;;;;28.93;46.24;94850.06;4988396;28;20223;-89
2023/07/17 11:15:43;;;;;;;6.63;3.00;;;;;;;28.73;45.57;94854.81;4991441;28;20204;-89
2023/07/17 11:21:01;;;;;;;3.35;3.05;;;;;;;28.63;45.56;94849.06;4981537;28;20231;-89
2023/07/17 11:23:28;;;;;;;3.20;2.90;;;;;;;28.56;46.71;94899.81;4990906;28;20593;-89
2023/07/17 11:26:00;;;;;;;3.53;3.20;;;;;;;28.45;46.61;94904.63;4991382;28;20216;-88
2023/07/17 11:33:46;;;;;;;4.72;3.40;;;;;;;28.75;46.50;94895.06;5008802;28;20234;-88
2023/07/17 11:36:16;;;;;;;4.03;2.60;;;;;;;28.93;47.01;94905.72;5009312;28;20297;-89
2023/07/17 11:38:44;;;;;;;8.75;7.93;;;;;;;29.12;46.01;94859.28;5011229;28;20198;-89
2023/07/17 11:41:28;;;;;;;7.18;5.95;;;;;;;28.99;45.79;94860.22;5010950;28;20252;-89
2023/07/17 11:44:01;;;;;;;3.90;3.47;;;;;;;28.82;45.01;94815.91;5000852;28;20203;-89
2023/07/17 11:46:30;;;;;;;4.60;3.08;;;;;;;28.71;45.08;94811.97;4994656;28;20225;-89
2023/07/17 11:49:06;;;;;;;3.53;2.97;;;;;;;28.74;46.02;94840.50;5010405;28;20306;-89
2023/07/17 11:51:36;;;;;;;4.97;3.30;;;;;;;28.73;45.07;94783.28;5008954;28;20198;-89
2023/07/17 11:54:05;;;;;;;4.18;2.95;;;;;;;28.66;45.08;94788.28;5010221;28;20281;-89
2023/07/17 11:56:38;;;;;;;4.85;3.15;;;;;;;28.65;45.52;94793.88;5009592;28;20265;-89
2023/07/17 11:59:06;;;;;;;3.63;3.33;;;;;;;28.76;45.17;94787.19;5009921;28;20236;-89